Time;durP1;ratioP1;P1;durP2;ratioP2;P2;SDS_P1;SDS_P2;PMS_P1;PMS_P2;Temp;Humidity;BMP_temperature;BMP_pressure;BME280_temperature;BME280_humidity;BME280_pressure;Samples;Min_cycle;Max_cycle;Signal;HPM_P1;HPM_P2
2023/08/09 00:00:21;;;;;;;13.50;13.10;;;18.10;99.90;;;;;;4901465;29;20540;-85
2023/08/09 00:02:54;;;;;;;14.57;13.97;;;18.00;99.90;;;;;;4904493;29;20495;-85
2023/08/09 00:05:28;;;;;;;13.10;12.80;;;18.00;99.90;;;;;;4903201;29;21533;-85
2023/08/09 00:07:59;;;;;;;14.00;13.60;;;18.00;99.90;;;;;;4898605;29;20923;-85
2023/08/09 00:10:27;;;;;;;13.70;13.30;;;18.00;99.90;;;;;;4904440;29;20962;-84
2023/08/09 00:13:06;;;;;;;14.23;13.63;;;18.00;99.90;;;;;;4903955;29;20618;-84
2023/08/09 00:15:35;;;;;;;13.87;13.37;;;18.00;99.90;;;;;;4902351;29;20493;-85
2023/08/09 00:18:17;;;;;;;14.30;13.70;;;18.00;99.90;;;;;;4905766;29;20544;-85
2023/08/09 00:20:53;;;;;;;13.97;13.57;;;18.00;99.90;;;;;;4899467;29;20485;-84
2023/08/09 00:23:27;;;;;;;14.10;13.50;;;18.00;99.90;;;;;;4902216;29;20498;-86
2023/08/09 00:25:58;;;;;;;14.10;13.60;;;17.90;99.90;;;;;;4902906;29;20471;-86
2023/08/09 00:28:39;;;;;;;13.97;13.47;;;18.00;99.90;;;;;;4902150;29;20465;-84
2023/08/09 00:31:10;;;;;;;14.33;13.83;;;18.00;99.90;;;;;;4902514;29;20497;-85
2023/08/09 00:33:40;;;;;;;14.07;13.57;;;18.00;99.90;;;;;;4904710;29;20503;-86
2023/08/09 00:36:12;;;;;;;14.00;13.50;;;18.00;99.90;;;;;;4903261;29;20990;-86
2023/08/09 00:39:11;;;;;;;14.20;13.70;;;18.00;99.90;;;;;;4907164;29;20485;-87
2023/08/09 00:41:41;;;;;;;13.93;13.50;;;18.00;99.90;;;;;;4907405;29;20504;-87
2023/08/09 00:44:13;;;;;;;13.77;13.30;;;17.90;99.90;;;;;;4907759;29;20545;-86
2023/08/09 00:46:51;;;;;;;14.30;13.90;;;17.90;99.90;;;;;;4926061;29;20465;-87
2023/08/09 00:49:32;;;;;;;14.30;13.90;;;17.90;99.90;;;;;;4913827;29;20453;-86
2023/08/09 00:52:06;;;;;;;14.70;14.00;;;17.90;99.90;;;;;;4907431;29;20477;-87
2023/08/09 00:54:34;;;;;;;14.00;13.50;;;17.90;99.90;;;;;;4905402;29;20492;-86
2023/08/09 00:57:09;;;;;;;13.30;12.80;;;17.90;99.90;;;;;;4908155;29;20468;-87
2023/08/09 00:59:43;;;;;;;13.80;13.40;;;17.80;99.90;;;;;;4908913;29;20464;-86
2023/08/09 01:02:22;;;;;;;13.57;13.17;;;17.80;99.90;;;;;;4907177;29;20512;-87
2023/08/09 01:05:04;;;;;;;13.80;13.40;;;17.90;99.90;;;;;;4904265;29;20465;-86
2023/08/09 01:07:41;;;;;;;14.13;13.73;;;17.90;99.90;;;;;;4906890;29;20464;-84
2023/08/09 01:10:19;;;;;;;13.23;12.93;;;17.80;1.00;;;;;;4903403;29;20526;-84
2023/08/09 01:13:12;;;;;;;14.37;13.97;;;17.80;1.00;;;;;;4907338;29;20486;-86
2023/08/09 01:15:54;;;;;;;13.67;13.17;;;17.80;1.00;;;;;;4909135;29;20461;-86
2023/08/09 01:18:30;;;;;;;13.90;13.50;;;17.80;1.00;;;;;;4907610;29;20486;-85
2023/08/09 01:21:11;;;;;;;13.67;13.27;;;17.80;1.00;;;;;;4907545;29;20465;-84
2023/08/09 01:23:49;;;;;;;13.93;13.53;;;17.80;1.00;;;;;;4907588;29;20490;-85
2023/08/09 01:26:27;;;;;;;13.80;13.40;;;17.80;1.00;;;;;;4905731;29;20472;-85
2023/08/09 01:29:00;;;;;;;13.80;13.30;;;17.80;1.00;;;;;;4908209;29;20896;-85
2023/08/09 01:31:32;;;;;;;14.23;13.73;;;17.70;1.00;;;;;;4907351;29;20580;-85
2023/08/09 01:34:15;;;;;;;13.83;13.43;;;17.70;1.00;;;;;;4907879;29;20492;-85
2023/08/09 01:36:53;;;;;;;14.40;13.90;;;17.70;1.00;;;;;;4906760;29;21053;-85
2023/08/09 01:39:33;;;;;;;13.93;13.53;;;17.70;1.00;;;;;;4905936;29;20895;-84
2023/08/09 01:42:12;;;;;;;14.63;14.17;;;17.70;1.00;;;;;;4906758;29;20477;-85
2023/08/09 01:44:47;;;;;;;14.63;14.10;;;17.70;1.00;;;;;;4904815;29;20491;-85
2023/08/09 01:47:32;;;;;;;14.30;13.70;;;17.60;1.00;;;;;;4907418;29;20540;-85
2023/08/09 01:50:17;;;;;;;13.63;13.30;;;17.70;1.00;;;;;;4900825;29;20465;-85
2023/08/09 01:52:59;;;;;;;13.93;13.53;;;17.70;1.00;;;;;;4900764;29;20477;-85
2023/08/09 01:55:37;;;;;;;13.80;13.40;;;17.70;1.00;;;;;;4904224;29;20454;-85
2023/08/09 01:58:13;;;;;;;14.10;13.70;;;17.70;1.00;;;;;;4905336;29;20484;-86
2023/08/09 02:01:02;;;;;;;14.07;13.57;;;17.70;1.00;;;;;;4901040;29;20480;-85
2023/08/09 02:03:32;;;;;;;13.50;13.10;;;17.80;1.00;;;;;;4903911;29;20489;-84
2023/08/09 02:06:04;;;;;;;13.17;12.87;;;17.80;1.00;;;;;;4916787;29;20446;-85
2023/08/09 02:08:35;;;;;;;13.43;13.03;;;17.80;1.00;;;;;;4923705;29;20506;-85
2023/08/09 02:11:16;;;;;;;13.87;13.40;;;17.70;99.90;;;;;;4914099;29;20945;-85
2023/08/09 02:13:52;;;;;;;13.70;13.30;;;17.70;99.90;;;;;;4911354;29;20694;-85
2023/08/09 02:16:28;;;;;;;14.20;13.80;;;17.70;99.90;;;;;;4907091;29;20497;-84
2023/08/09 02:18:57;;;;;;;13.80;13.43;;;17.70;1.00;;;;;;4906881;29;20469;-84
2023/08/09 02:21:33;;;;;;;13.63;13.23;;;17.70;1.00;;;;;;4910545;29;21003;-83
2023/08/09 02:24:05;;;;;;;13.50;13.10;;;17.70;1.00;;;;;;4908569;29;20486;-85
2023/08/09 02:26:42;;;;;;;13.73;13.33;;;17.70;1.00;;;;;;4909815;29;20457;-85
2023/08/09 02:29:16;;;;;;;13.70;13.30;;;17.70;1.00;;;;;;4905233;29;20480;-85
2023/08/09 02:31:48;;;;;;;13.10;12.70;;;17.60;1.00;;;;;;4911047;29;20734;-84
2023/08/09 02:34:19;;;;;;;13.37;13.00;;;17.70;1.00;;;;;;4907224;29;21279;-83
2023/08/09 02:36:52;;;;;;;13.43;13.00;;;17.60;1.00;;;;;;4904517;29;20560;-86
2023/08/09 02:39:31;;;;;;;13.50;13.10;;;17.60;1.00;;;;;;4904492;29;20564;-87
2023/08/09 02:42:04;;;;;;;14.13;13.70;;;17.50;1.00;;;;;;4908454;29;20488;-87
2023/08/09 02:44:39;;;;;;;13.60;13.20;;;17.50;1.00;;;;;;4909572;29;20576;-86
2023/08/09 02:47:10;;;;;;;13.90;13.50;;;17.40;1.00;;;;;;4903815;29;20499;-86
2023/08/09 02:49:43;;;;;;;13.60;13.30;;;17.40;1.00;;;;;;4901156;29;20465;-86
2023/08/09 02:52:21;;;;;;;14.37;13.90;;;17.30;1.00;;;;;;4900314;28;20465;-87
2023/08/09 02:54:55;;;;;;;13.83;13.30;;;17.40;1.00;;;;;;4904277;29;20476;-86
2023/08/09 02:57:31;;;;;;;13.30;12.90;;;17.30;1.00;;;;;;4919400;29;20557;-86
2023/08/09 03:00:04;;;;;;;14.10;13.40;;;17.30;1.00;;;;;;4916702;29;20828;-90
2023/08/09 03:02:37;;;;;;;14.13;13.73;;;17.30;1.00;;;;;;4902271;29;20541;-87
2023/08/09 03:05:12;;;;;;;13.50;13.00;;;17.20;1.00;;;;;;4898860;29;20464;-88
2023/08/09 03:07:48;;;;;;;13.30;13.00;;;17.30;1.00;;;;;;4904960;29;20508;-88
2023/08/09 03:10:22;;;;;;;13.47;13.17;;;17.40;1.00;;;;;;4901464;29;20466;-87
2023/08/09 03:13:02;;;;;;;13.20;12.90;;;17.40;1.00;;;;;;4903148;29;20484;-87
2023/08/09 03:15:32;;;;;;;13.50;13.10;;;17.40;1.00;;;;;;4901312;29;20563;-86
2023/08/09 03:18:09;;;;;;;13.40;13.07;;;17.40;1.00;;;;;;4898507;29;20474;-87
2023/08/09 03:20:45;;;;;;;13.20;12.80;;;17.50;1.00;;;;;;4903046;29;20548;-85
2023/08/09 03:23:28;;;;;;;13.47;12.97;;;17.50;1.00;;;;;;4904228;29;20588;-85
2023/08/09 03:26:09;;;;;;;13.47;13.07;;;17.50;1.00;;;;;;4901742;29;20921;-87
2023/08/09 03:28:47;;;;;;;13.50;13.10;;;17.50;1.00;;;;;;4903958;29;20461;-86
2023/08/09 03:31:15;;;;;;;13.63;13.20;;;17.50;1.00;;;;;;4904331;29;20877;-86
2023/08/09 03:33:59;;;;;;;13.20;12.90;;;17.50;1.00;;;;;;4918070;29;20489;-87
2023/08/09 03:36:39;;;;;;;13.27;12.77;;;17.60;1.00;;;;;;4903257;29;20468;-85
2023/08/09 03:39:17;;;;;;;13.00;12.60;;;17.50;1.00;;;;;;4918269;29;21041;-84
2023/08/09 03:41:48;;;;;;;12.83;12.43;;;17.50;1.00;;;;;;4903174;29;20472;-87
2023/08/09 03:44:23;;;;;;;12.93;12.53;;;17.40;1.00;;;;;;4901574;29;20501;-85
2023/08/09 03:46:59;;;;;;;13.53;13.13;;;17.40;1.00;;;;;;4904134;29;20469;-86
2023/08/09 03:49:37;;;;;;;13.17;12.80;;;17.50;1.00;;;;;;4904374;29;20555;-86
2023/08/09 03:52:14;;;;;;;13.27;12.93;;;17.40;1.00;;;;;;4904369;29;20460;-86
2023/08/09 03:54:51;;;;;;;13.70;13.23;;;17.40;1.00;;;;;;4907118;29;20575;-87
2023/08/09 03:57:29;;;;;;;12.87;12.57;;;17.30;1.00;;;;;;4900734;29;20498;-87
2023/08/09 04:00:19;;;;;;;;;;;;;;;;;;;;;
2023/08/09 04:02:59;;;;;;;13.13;12.70;;;17.40;1.00;;;;;;4910807;29;21002;-86
2023/08/09 04:05:36;;;;;;;14.00;13.40;;;17.40;1.00;;;;;;4901369;29;21158;-86
2023/08/09 04:08:13;;;;;;;13.60;13.20;;;17.50;1.00;;;;;;4900736;29;20971;-86
2023/08/09 04:10:42;;;;;;;13.23;12.87;;;17.40;1.00;;;;;;4901115;29;20994;-85
2023/08/09 04:13:15;;;;;;;13.23;12.83;;;17.50;1.00;;;;;;4902010;29;20503;-86
2023/08/09 04:15:50;;;;;;;13.03;12.63;;;17.40;1.00;;;;;;4905349;29;20820;-86
2023/08/09 04:18:26;;;;;;;13.70;13.20;;;17.50;1.00;;;;;;4903824;29;20531;-87
2023/08/09 04:21:04;;;;;;;13.03;12.63;;;17.40;1.00;;;;;;4901951;29;20569;-87
2023/08/09 04:23:35;;;;;;;13.83;13.27;;;17.50;1.00;;;;;;4900895;29;20912;-87
2023/08/09 04:26:15;;;;;;;13.63;13.10;;;17.40;1.00;;;;;;4914325;29;20843;-87
2023/08/09 04:28:56;;;;;;;13.80;13.40;;;17.40;1.00;;;;;;4903866;29;20468;-85
2023/08/09 04:31:26;;;;;;;14.03;13.63;;;17.40;1.00;;;;;;4901682;29;20468;-85
2023/08/09 04:34:03;;;;;;;13.80;13.40;;;17.40;1.00;;;;;;4898815;29;20628;-87
2023/08/09 04:36:34;;;;;;;13.40;13.10;;;17.50;1.00;;;;;;4904811;29;20468;-88
2023/08/09 04:39:09;;;;;;;14.10;13.60;;;17.50;1.00;;;;;;4899928;29;21051;-88
2023/08/09 04:41:37;;;;;;;13.53;13.13;;;17.50;1.00;;;;;;4901857;29;20477;-87
2023/08/09 04:44:15;;;;;;;14.93;14.10;;;17.50;1.00;;;;;;4903645;29;20493;-87
2023/08/09 04:46:52;;;;;;;13.13;12.73;;;17.60;1.00;;;;;;4898303;29;20473;-88
2023/08/09 04:49:30;;;;;;;13.60;13.20;;;17.60;1.00;;;;;;4901454;29;20512;-88
2023/08/09 04:52:03;;;;;;;13.90;13.40;;;17.50;1.00;;;;;;4906979;29;20468;-87
2023/08/09 04:54:35;;;;;;;13.83;13.33;;;17.50;1.00;;;;;;4901076;29;20493;-88
2023/08/09 04:57:06;;;;;;;14.17;13.67;;;17.50;1.00;;;;;;4903950;29;20451;-87
2023/08/09 04:59:38;;;;;;;13.97;13.57;;;17.50;1.00;;;;;;4901484;29;20454;-86
2023/08/09 05:02:22;;;;;;;14.10;13.70;;;17.50;1.00;;;;;;4898046;29;20497;-88
2023/08/09 05:05:04;;;;;;;13.60;13.20;;;17.50;1.00;;;;;;4914514;29;20462;-89
2023/08/09 05:07:40;;;;;;;13.60;13.20;;;17.40;1.00;;;;;;4920597;29;20549;-85
2023/08/09 05:10:16;;;;;;;13.30;13.00;;;17.50;1.00;;;;;;4904748;29;20531;-87
2023/08/09 05:12:45;;;;;;;14.20;13.60;;;17.40;1.00;;;;;;4903766;29;20584;-87
2023/08/09 05:15:17;;;;;;;13.70;13.30;;;17.50;1.00;;;;;;4901676;29;20468;-88
2023/08/09 05:18:02;;;;;;;13.60;13.20;;;17.50;1.00;;;;;;4902436;29;20491;-90
2023/08/09 05:20:39;;;;;;;14.30;13.60;;;17.50;1.00;;;;;;4901504;29;20471;-86
2023/08/09 05:23:15;;;;;;;13.80;13.10;;;17.50;1.00;;;;;;4910897;29;20875;-87
2023/08/09 05:25:49;;;;;;;14.20;13.47;;;17.50;1.00;;;;;;4902205;29;20833;-86
2023/08/09 05:28:25;;;;;;;13.30;12.97;;;17.40;1.00;;;;;;4903906;29;20470;-86
2023/08/09 05:31:05;;;;;;;14.43;13.93;;;17.50;1.00;;;;;;4902076;29;20574;-85
2023/08/09 05:33:50;;;;;;;14.53;14.00;;;17.50;1.00;;;;;;4901797;29;20494;-86
2023/08/09 05:36:42;;;;;;;14.03;13.40;;;17.50;1.00;;;;;;4905463;29;21104;-86
2023/08/09 05:39:12;;;;;;;14.30;13.80;;;17.50;1.00;;;;;;4921522;29;20468;-86
2023/08/09 05:41:42;;;;;;;14.40;14.00;;;17.50;1.00;;;;;;4896358;29;20548;-86
2023/08/09 05:44:17;;;;;;;13.80;13.40;;;17.50;1.00;;;;;;4906379;29;20493;-86
2023/08/09 05:46:59;;;;;;;14.03;13.53;;;17.50;1.00;;;;;;4903382;29;20563;-86
2023/08/09 05:49:40;;;;;;;14.40;13.80;;;17.40;1.00;;;;;;4903924;29;20966;-86
2023/08/09 05:52:21;;;;;;;13.90;13.50;;;17.50;1.00;;;;;;4903118;29;20464;-84
2023/08/09 05:55:01;;;;;;;14.17;13.77;;;17.50;1.00;;;;;;4902137;29;20461;-85
2023/08/09 05:57:36;;;;;;;14.20;13.80;;;17.50;1.00;;;;;;4904450;29;20463;-83
2023/08/09 06:00:15;;;;;;;14.03;13.63;;;17.50;1.00;;;;;;4896256;29;20300;-82
2023/08/09 06:02:49;;;;;;;14.00;13.60;;;17.50;1.00;;;;;;4897669;29;20484;-82
2023/08/09 06:05:25;;;;;;;14.20;13.70;;;17.60;1.00;;;;;;4901895;29;20485;-83
2023/08/09 06:07:57;;;;;;;14.23;13.83;;;17.60;1.00;;;;;;4904944;29;20462;-82
2023/08/09 06:10:28;;;;;;;14.30;13.90;;;17.60;1.00;;;;;;4900198;29;20490;-82
2023/08/09 06:13:02;;;;;;;14.30;13.90;;;17.60;1.00;;;;;;4899719;29;20566;-81
2023/08/09 06:15:32;;;;;;;14.20;13.70;;;17.70;1.00;;;;;;4895266;29;20458;-82
2023/08/09 06:18:16;;;;;;;14.40;13.90;;;17.70;1.00;;;;;;4894633;29;20461;-81
2023/08/09 06:20:51;;;;;;;14.00;13.50;;;17.70;1.00;;;;;;4900945;29;20464;-82
2023/08/09 06:23:25;;;;;;;14.20;13.60;;;17.70;1.00;;;;;;4906821;29;20492;-83
2023/08/09 06:25:58;;;;;;;15.30;14.03;;;17.80;1.00;;;;;;4901306;29;20509;-84
2023/08/09 06:28:29;;;;;;;14.90;14.50;;;17.80;1.00;;;;;;4906675;29;20471;-82
2023/08/09 06:31:09;;;;;;;14.50;14.10;;;17.80;99.90;;;;;;4903168;29;20457;-82
2023/08/09 06:33:44;;;;;;;14.73;14.23;;;17.80;99.90;;;;;;4910974;29;20492;-84
2023/08/09 06:36:20;;;;;;;15.03;14.40;;;17.80;1.00;;;;;;4904003;29;20475;-84
2023/08/09 06:38:55;;;;;;;14.30;13.90;;;17.90;99.90;;;;;;4902986;29;20527;-83
2023/08/09 06:41:30;;;;;;;15.23;14.63;;;17.80;99.90;;;;;;4904528;29;20469;-83
2023/08/09 06:43:59;;;;;;;14.53;14.10;;;17.80;99.90;;;;;;4905862;29;20628;-83
2023/08/09 06:46:32;;;;;;;15.70;15.00;;;17.80;99.90;;;;;;4905867;29;20536;-83
2023/08/09 06:49:04;;;;;;;15.00;14.50;;;17.80;99.90;;;;;;4903930;29;20501;-84
2023/08/09 06:51:41;;;;;;;15.50;14.90;;;17.90;99.90;;;;;;4900392;29;20463;-84
2023/08/09 06:54:12;;;;;;;15.37;14.87;;;17.90;1.00;;;;;;4917103;29;20629;-83
2023/08/09 06:56:45;;;;;;;14.83;14.40;;;17.90;99.90;;;;;;4903179;29;20462;-84
2023/08/09 06:59:17;;;;;;;14.50;14.10;;;18.00;99.90;;;;;;4903421;29;20474;-85
2023/08/09 07:01:51;;;;;;;15.02;14.52;;;18.10;99.90;;;;;;4908180;29;20523;-85
2023/08/09 07:04:26;;;;;;;14.70;14.20;;;18.00;99.90;;;;;;4919480;29;21701;-87
2023/08/09 07:07:09;;;;;;;14.30;13.90;;;18.10;1.00;;;;;;4907692;29;20894;-86
2023/08/09 07:09:39;;;;;;;15.10;14.23;;;18.10;99.90;;;;;;4897359;29;20553;-83
2023/08/09 07:12:14;;;;;;;15.60;15.20;;;18.20;99.90;;;;;;4902460;29;20978;-85
2023/08/09 07:14:53;;;;;;;14.93;14.53;;;18.20;99.90;;;;;;4904578;29;22307;-84
2023/08/09 07:17:39;;;;;;;15.20;14.40;;;18.20;99.90;;;;;;4905881;29;20460;-82
2023/08/09 07:20:11;;;;;;;14.87;14.37;;;18.20;99.90;;;;;;4896260;29;20991;-84
2023/08/09 07:22:44;;;;;;;15.80;15.20;;;18.30;99.90;;;;;;4906094;23;20466;-83
2023/08/09 07:26:09;;;;;;;15.00;14.40;;;18.30;99.90;;;;;;4883023;29;20509;-83
2023/08/09 07:28:39;;;;;;;14.63;14.23;;;18.40;99.90;;;;;;4885879;29;20849;-84
2023/08/09 07:31:30;;;;;;;16.33;15.43;;;18.40;1.00;;;;;;4879691;29;20471;-85
2023/08/09 07:34:39;;;;;;;15.67;14.93;;;18.40;1.00;;;;;;4882591;29;20490;-84
2023/08/09 07:37:08;;;;;;;15.67;15.17;;;18.30;99.90;;;;;;4878433;29;20999;-85
2023/08/09 07:39:50;;;;;;;15.57;15.07;;;18.30;1.00;;;;;;4878406;29;20481;-85
2023/08/09 07:42:28;;;;;;;15.63;15.10;;;18.30;1.00;;;;;;4879376;29;20468;-85
2023/08/09 07:44:59;;;;;;;15.27;14.77;;;18.30;1.00;;;;;;4884472;29;20494;-84
2023/08/09 07:47:32;;;;;;;15.20;14.70;;;18.30;99.90;;;;;;4878291;29;20477;-85
2023/08/09 07:50:05;;;;;;;15.30;14.70;;;18.30;99.90;;;;;;4881261;29;20469;-86
2023/08/09 07:53:28;;;;;;;15.10;14.70;;;18.40;99.90;;;;;;4880051;29;20541;-82
2023/08/09 07:56:20;;;;;;;14.97;14.53;;;18.40;99.90;;;;;;4878108;29;20478;-84
2023/08/09 07:58:53;;;;;;;14.90;14.40;;;18.50;99.90;;;;;;4880167;29;20466;-84
2023/08/09 08:01:35;;;;;;;15.47;14.97;;;18.50;99.90;;;;;;4879602;29;20509;-86
2023/08/09 08:11:10;;;;;;;;;;;;;;;;;;;;;
2023/08/09 08:14:07;;;;;;;14.80;14.10;;;18.50;99.90;;;;;;4918340;29;20858;-86
2023/08/09 08:16:48;;;;;;;15.20;14.70;;;18.60;99.90;;;;;;4901312;29;20553;-86
2023/08/09 08:19:19;;;;;;;16.40;15.73;;;18.70;99.90;;;;;;4901123;29;20459;-85
2023/08/09 08:21:48;;;;;;;15.40;14.60;;;18.70;99.90;;;;;;4902387;29;20568;-84
2023/08/09 08:24:25;;;;;;;14.77;14.20;;;18.70;99.90;;;;;;4903765;29;20510;-85
2023/08/09 08:27:15;;;;;;;14.93;14.40;;;18.70;99.90;;;;;;4899250;29;20490;-85
2023/08/09 08:29:59;;;;;;;14.87;14.37;;;18.80;99.90;;;;;;4912943;29;20554;-85
2023/08/09 08:32:30;;;;;;;14.90;14.40;;;19.10;99.90;;;;;;4902138;29;20453;-85
2023/08/09 08:35:02;;;;;;;15.30;14.70;;;19.10;99.90;;;;;;4901618;29;20486;-85
2023/08/09 08:37:34;;;;;;;15.77;15.27;;;19.20;99.90;;;;;;4903524;29;20717;-86
2023/08/09 08:41:01;;;;;;;15.17;14.67;;;19.20;99.90;;;;;;4904534;29;20467;-84
2023/08/09 08:43:34;;;;;;;14.87;14.37;;;19.30;99.90;;;;;;4864039;29;20511;-84
2023/08/09 08:46:19;;;;;;;14.70;14.30;;;19.30;99.90;;;;;;4864216;29;20892;-85
2023/08/09 08:48:53;;;;;;;14.40;13.70;;;19.30;99.90;;;;;;4891971;29;20509;-87
2023/08/09 08:55:02;;;;;;;14.20;13.80;;;19.30;99.90;;;;;;4905086;29;20561;-86
2023/08/09 08:57:34;;;;;;;15.30;14.70;;;19.30;99.90;;;;;;4903366;29;20477;-85
2023/08/09 09:00:08;;;;;;;15.27;14.30;;;19.30;99.90;;;;;;4904506;29;20993;-85
2023/08/09 09:03:00;;;;;;;14.50;14.00;;;19.30;99.90;;;;;;4903368;29;20490;-84
2023/08/09 09:05:36;;;;;;;14.70;14.20;;;19.30;99.90;;;;;;4901546;29;20505;-86
2023/08/09 09:08:08;;;;;;;14.33;13.83;;;19.20;99.90;;;;;;4903799;29;20470;-85
2023/08/09 09:10:45;;;;;;;14.60;14.10;;;19.30;99.90;;;;;;4904147;29;20446;-83
2023/08/09 09:13:25;;;;;;;15.13;14.63;;;19.20;99.90;;;;;;4898483;29;20573;-84
2023/08/09 09:16:00;;;;;;;15.20;14.80;;;19.30;99.90;;;;;;4918153;29;20488;-85
2023/08/09 09:18:48;;;;;;;15.63;15.13;;;19.30;99.90;;;;;;4900078;29;20851;-86
2023/08/09 09:21:20;;;;;;;15.00;14.60;;;19.40;99.90;;;;;;4899409;29;20461;-85
2023/08/09 09:23:57;;;;;;;15.53;14.83;;;19.30;99.90;;;;;;4897190;29;21181;-83
2023/08/09 09:26:30;;;;;;;14.90;14.30;;;19.30;99.90;;;;;;4898503;29;20569;-84
2023/08/09 09:28:59;;;;;;;15.03;14.53;;;19.30;99.90;;;;;;4897981;29;20466;-85
2023/08/09 09:31:36;;;;;;;14.97;14.17;;;19.30;99.90;;;;;;4900482;29;20461;-86
2023/08/09 09:34:10;;;;;;;15.30;14.80;;;19.30;99.90;;;;;;4904588;28;20855;-84
2023/08/09 09:36:57;;;;;;;15.57;14.90;;;19.30;99.90;;;;;;4905369;29;20473;-85
2023/08/09 09:39:29;;;;;;;14.97;14.47;;;19.40;99.90;;;;;;4903574;29;20470;-86
2023/08/09 09:42:06;;;;;;;15.23;14.60;;;19.40;99.90;;;;;;4900350;29;20458;-86
2023/08/09 09:44:39;;;;;;;15.47;14.80;;;19.50;99.90;;;;;;4904490;29;20705;-84
2023/08/09 09:47:11;;;;;;;15.43;14.77;;;19.50;99.90;;;;;;4902836;29;20544;-84
2023/08/09 09:49:53;;;;;;;15.70;15.03;;;19.50;99.90;;;;;;4903854;29;20473;-85
2023/08/09 09:52:27;;;;;;;15.70;15.10;;;19.50;99.90;;;;;;4902466;29;20836;-86
2023/08/09 09:54:58;;;;;;;15.07;14.57;;;19.60;99.90;;;;;;4901306;29;21010;-84
2023/08/09 09:57:33;;;;;;;15.83;15.33;;;19.60;99.90;;;;;;4903147;29;20458;-86
2023/08/09 10:00:10;;;;;;;15.17;14.77;;;19.50;99.90;;;;;;4901725;29;20498;-84
2023/08/09 10:02:49;;;;;;;15.87;15.17;;;19.50;99.90;;;;;;4901369;29;20485;-83
2023/08/09 10:05:27;;;;;;;14.70;14.30;;;19.50;99.90;;;;;;4900541;29;20521;-86
2023/08/09 10:07:59;;;;;;;15.70;15.20;;;19.50;99.90;;;;;;4905663;29;20709;-84
2023/08/09 10:10:35;;;;;;;15.70;15.10;;;19.50;99.90;;;;;;4905654;29;21035;-84
2023/08/09 10:13:09;;;;;;;15.90;15.30;;;19.50;99.90;;;;;;4900214;29;21624;-85
2023/08/09 10:15:46;;;;;;;15.47;14.87;;;19.50;99.90;;;;;;4903664;29;21212;-83
2023/08/09 10:18:19;;;;;;;15.00;14.40;;;19.50;99.90;;;;;;4905268;29;20525;-84
2023/08/09 10:20:56;;;;;;;15.53;15.03;;;19.50;99.90;;;;;;4900781;29;20461;-83
2023/08/09 10:23:32;;;;;;;15.27;14.77;;;19.50;99.90;;;;;;4906347;29;20545;-85
2023/08/09 10:26:10;;;;;;;15.50;15.03;;;19.50;99.90;;;;;;4901991;29;20489;-85
2023/08/09 10:28:48;;;;;;;16.00;15.30;;;19.60;99.90;;;;;;4901745;29;20915;-84
2023/08/09 10:31:46;;;;;;;15.67;15.07;;;19.60;99.90;;;;;;4901504;29;20465;-84
2023/08/09 10:34:17;;;;;;;15.90;15.40;;;19.60;99.90;;;;;;4903399;29;21043;-84
2023/08/09 10:36:54;;;;;;;15.73;15.23;;;19.60;99.90;;;;;;4904937;29;20463;-83
2023/08/09 10:39:25;;;;;;;15.50;14.90;;;19.50;99.90;;;;;;4907077;29;20469;-83
2023/08/09 10:42:03;;;;;;;15.47;14.87;;;19.60;99.90;;;;;;4902165;29;20484;-84
2023/08/09 10:44:38;;;;;;;15.60;14.80;;;19.60;99.90;;;;;;4908419;29;20485;-84
2023/08/09 10:47:14;;;;;;;14.80;14.40;;;19.70;99.90;;;;;;4918321;29;20494;-84
2023/08/09 10:49:59;;;;;;;15.50;15.00;;;19.70;99.90;;;;;;4902951;29;20472;-83
2023/08/09 10:52:41;;;;;;;15.30;14.80;;;19.80;99.90;;;;;;4898806;29;20481;-83
2023/08/09 10:55:37;;;;;;;15.50;14.97;;;19.80;99.90;;;;;;4904381;29;20468;-82
2023/08/09 10:58:18;;;;;;;15.97;15.17;;;19.90;99.90;;;;;;4899383;29;20529;-83
2023/08/09 11:00:48;;;;;;;15.90;15.30;;;19.90;99.90;;;;;;4898024;29;20469;-84
2023/08/09 11:03:19;;;;;;;15.50;15.00;;;19.90;99.90;;;;;;4900257;29;20505;-84
2023/08/09 11:05:52;;;;;;;15.60;15.00;;;20.00;99.90;;;;;;4899143;29;20473;-84
2023/08/09 11:08:25;;;;;;;15.33;14.60;;;20.10;99.90;;;;;;4904568;29;20565;-81
2023/08/09 11:11:03;;;;;;;15.57;14.97;;;20.20;99.90;;;;;;4900116;29;21007;-84
2023/08/09 11:13:35;;;;;;;15.77;15.17;;;20.20;99.90;;;;;;4901198;29;20505;-84
2023/08/09 11:16:19;;;;;;;15.10;14.60;;;20.10;99.90;;;;;;4913048;29;20462;-84
2023/08/09 11:18:59;;;;;;;15.37;14.87;;;20.20;99.90;;;;;;4899769;29;20572;-84
2023/08/09 11:21:28;;;;;;;15.37;14.83;;;20.20;99.90;;;;;;4896690;29;20505;-84
2023/08/09 11:24:03;;;;;;;14.80;14.40;;;20.30;99.90;;;;;;4896598;29;20477;-83
2023/08/09 11:26:33;;;;;;;15.23;14.80;;;20.40;99.90;;;;;;4900158;29;20484;-83
2023/08/09 11:29:02;;;;;;;15.17;14.67;;;20.40;99.90;;;;;;4896762;29;20460;-85
2023/08/09 11:31:40;;;;;;;15.50;15.07;;;20.60;99.90;;;;;;4899557;29;20523;-82
2023/08/09 11:34:13;;;;;;;15.10;14.70;;;20.70;99.90;;;;;;4913403;29;20485;-84
2023/08/09 11:36:45;;;;;;;15.10;14.70;;;20.80;99.90;;;;;;4904613;29;20461;-85
2023/08/09 11:39:17;;;;;;;15.60;15.00;;;20.70;99.90;;;;;;4931756;29;20533;-87
2023/08/09 11:41:55;;;;;;;15.43;14.93;;;20.80;99.90;;;;;;4910221;29;20466;-86
2023/08/09 11:44:33;;;;;;;15.27;14.77;;;20.80;99.90;;;;;;4911855;29;20486;-84
2023/08/09 11:47:03;;;;;;;15.23;14.80;;;20.80;99.90;;;;;;4902901;29;20486;-82
2023/08/09 11:49:40;;;;;;;14.83;14.40;;;20.90;99.90;;;;;;4911554;29;20470;-85
2023/08/09 11:52:16;;;;;;;15.17;14.63;;;21.00;99.90;;;;;;4913555;29;20454;-83
2023/08/09 11:54:50;;;;;;;15.40;14.90;;;21.00;99.90;;;;;;4909535;29;20508;-82
2023/08/09 11:57:24;;;;;;;15.27;14.70;;;21.00;99.90;;;;;;4913925;29;20462;-82
2023/08/09 11:59:58;;;;;;;15.87;15.10;;;21.00;99.90;;;;;;4911473;29;20443;-84
2023/08/09 12:02:49;;;;;;;15.90;15.30;;;21.10;99.90;;;;;;4911284;29;20791;-84
2023/08/09 12:05:19;;;;;;;15.27;14.77;;;21.10;99.90;;;;;;4906701;29;20467;-85
2023/08/09 12:07:53;;;;;;;14.90;14.40;;;21.10;99.90;;;;;;4907113;29;20474;-84
2023/08/09 12:10:25;;;;;;;15.67;15.07;;;21.00;99.90;;;;;;4905611;29;21063;-84
2023/08/09 12:12:57;;;;;;;16.03;15.43;;;21.10;99.90;;;;;;4902316;29;20493;-86
2023/08/09 12:15:31;;;;;;;15.10;14.57;;;21.00;99.90;;;;;;4907636;29;20517;-86
2023/08/09 12:18:03;;;;;;;14.87;14.47;;;21.10;99.90;;;;;;4905518;29;20454;-84
2023/08/09 12:20:34;;;;;;;16.27;15.67;;;21.10;99.90;;;;;;4902963;29;20472;-85
2023/08/09 12:23:06;;;;;;;15.00;14.50;;;21.10;99.90;;;;;;4905412;29;20478;-86
2023/08/09 12:25:37;;;;;;;14.87;14.37;;;21.10;99.90;;;;;;4906415;29;20462;-86
2023/08/09 12:28:11;;;;;;;15.80;15.20;;;20.90;99.90;;;;;;4920164;29;20481;-85
2023/08/09 12:30:42;;;;;;;14.63;14.23;;;20.90;99.90;;;;;;4902507;29;20510;-81
2023/08/09 12:33:16;;;;;;;15.00;14.50;;;20.90;99.90;;;;;;4900234;29;20485;-82
2023/08/09 12:35:44;;;;;;;14.63;14.23;;;21.00;99.90;;;;;;4906268;29;20467;-83
2023/08/09 12:38:15;;;;;;;15.07;14.57;;;21.00;99.90;;;;;;4904869;29;20466;-83
2023/08/09 12:40:55;;;;;;;15.37;14.90;;;21.10;99.90;;;;;;4902768;29;20600;-81
2023/08/09 12:43:28;;;;;;;14.90;14.40;;;21.00;99.90;;;;;;4901269;29;20622;-83
2023/08/09 12:46:03;;;;;;;15.10;14.60;;;21.10;99.90;;;;;;4904433;29;20516;-82
2023/08/09 12:48:34;;;;;;;15.23;14.73;;;21.10;99.90;;;;;;4902870;29;20481;-82
2023/08/09 12:51:07;;;;;;;15.20;14.80;;;21.10;99.90;;;;;;4901509;29;20888;-83
2023/08/09 12:53:39;;;;;;;15.43;14.73;;;21.20;99.90;;;;;;4911598;29;20586;-83
2023/08/09 12:56:11;;;;;;;14.67;14.17;;;21.20;99.90;;;;;;4900072;29;20458;-84
2023/08/09 12:58:42;;;;;;;14.90;14.40;;;21.30;99.90;;;;;;4896895;29;20570;-82
2023/08/09 13:01:14;;;;;;;14.43;14.03;;;21.30;99.90;;;;;;4898740;29;21091;-83
2023/08/09 13:07:14;;;;;;;14.80;14.30;;;21.30;99.90;;;;;;4843421;29;20516;-83
2023/08/09 13:09:43;;;;;;;14.97;14.57;;;21.30;99.90;;;;;;4896804;29;21342;-84
2023/08/09 13:12:17;;;;;;;14.70;14.20;;;21.20;99.90;;;;;;4900127;29;20468;-82
2023/08/09 13:15:01;;;;;;;14.83;14.43;;;21.20;99.90;;;;;;4903834;29;20453;-83
2023/08/09 13:17:30;;;;;;;15.30;14.70;;;21.10;99.90;;;;;;4899191;29;20553;-85
2023/08/09 13:20:02;;;;;;;15.43;14.83;;;21.10;99.90;;;;;;4900021;29;20468;-83
2023/08/09 13:22:34;;;;;;;15.10;14.60;;;21.10;99.90;;;;;;4897257;29;20543;-83
2023/08/09 13:25:11;;;;;;;14.60;14.13;;;21.10;99.90;;;;;;4899488;29;20469;-85
2023/08/09 13:27:45;;;;;;;15.53;15.03;;;21.20;99.90;;;;;;4900634;29;20517;-82
2023/08/09 13:30:31;;;;;;;15.20;14.67;;;21.20;99.90;;;;;;4900674;29;20465;-83
2023/08/09 13:33:01;;;;;;;15.47;14.80;;;21.40;99.90;;;;;;4899682;29;20477;-83